createdAt,value
2023-02-06T00:00:51.231Z,527.00
2023-02-06T00:01:51.223Z,524.00
2023-02-06T00:02:51.235Z,523.00
2023-02-06T00:03:51.248Z,525.00
2023-02-06T00:04:51.249Z,524.00
2023-02-06T03:08:53.365Z,515.00
2023-02-06T03:09:53.399Z,513.00
2023-02-06T03:10:53.389Z,511.00
2023-02-06T03:11:53.397Z,511.00
2023-02-06T03:12:53.413Z,510.00
2023-02-06T03:13:53.435Z,507.00
2023-02-06T03:14:53.422Z,509.00
2023-02-06T03:15:53.432Z,510.00
2023-02-06T03:16:53.462Z,510.00
2023-02-06T03:17:53.460Z,510.00
2023-02-06T03:18:53.485Z,511.00
2023-02-06T03:19:53.508Z,513.00
2023-02-06T03:20:53.509Z,514.00
2023-02-06T03:21:53.530Z,514.00
2023-02-06T03:22:53.529Z,512.00
2023-02-06T03:23:53.535Z,509.00
2023-02-06T03:24:53.566Z,511.00
2023-02-06T03:25:53.575Z,512.00
2023-02-06T03:26:53.587Z,512.00
2023-02-06T03:27:53.632Z,512.00
2023-02-06T03:28:53.615Z,509.00
2023-02-06T03:29:53.625Z,509.00
2023-02-06T03:30:53.649Z,512.00
2023-02-06T03:31:53.674Z,514.00
2023-02-06T03:32:53.652Z,513.00
2023-02-06T03:33:53.653Z,512.00
2023-02-06T03:34:53.673Z,512.00
2023-02-06T03:35:53.670Z,512.00
2023-02-06T03:36:53.666Z,511.00
2023-02-06T03:37:53.649Z,512.00
2023-02-06T03:38:53.664Z,514.00
2023-02-06T03:39:53.651Z,514.00
2023-02-06T03:40:53.648Z,513.00
2023-02-06T03:41:53.655Z,512.00
2023-02-06T03:42:53.659Z,510.00
2023-02-06T03:43:53.655Z,511.00
2023-02-06T03:44:53.652Z,511.00
2023-02-06T03:45:53.671Z,512.00
2023-02-06T03:46:53.651Z,515.00
2023-02-06T03:47:53.631Z,519.00
2023-02-06T03:48:53.632Z,518.00
2023-02-06T03:49:53.619Z,519.00
2023-02-06T03:50:53.609Z,516.00
2023-02-06T03:51:53.598Z,518.00
2023-02-06T03:52:53.581Z,518.00
2023-02-06T03:53:53.605Z,518.00
2023-02-06T03:54:53.602Z,518.00
2023-02-06T03:55:53.584Z,515.00
2023-02-06T03:56:53.585Z,517.00
2023-02-06T03:57:53.607Z,517.00
2023-02-06T06:35:58.164Z,990.00
2023-02-06T06:36:58.163Z,1042.00
2023-02-06T06:37:58.187Z,1104.00
2023-02-06T06:38:58.222Z,1108.00
2023-02-06T06:39:58.245Z,1134.00
2023-02-06T06:40:58.276Z,1132.00
2023-02-06T06:41:58.302Z,1137.00
2023-02-06T06:42:58.301Z,1165.00
2023-02-06T06:43:58.977Z,1173.00
2023-02-06T06:44:58.362Z,1208.00
2023-02-06T06:45:58.420Z,1220.00
2023-02-06T06:46:58.406Z,1237.00
2023-02-06T06:47:58.428Z,1263.00
2023-02-06T06:48:58.438Z,1283.00
2023-02-06T06:49:58.462Z,1295.00
2023-02-06T06:50:58.495Z,1338.00
2023-02-06T06:51:58.490Z,1359.00
2023-02-06T06:52:58.506Z,1369.00
2023-02-06T06:53:58.520Z,1402.00
2023-02-06T06:54:58.524Z,1425.00
2023-02-06T06:55:58.531Z,1441.00
2023-02-06T06:56:58.547Z,1458.00
2023-02-06T06:57:58.520Z,1468.00
2023-02-06T06:58:58.530Z,1487.00
2023-02-06T06:59:58.537Z,1507.00
2023-02-06T07:00:58.540Z,1572.00
2023-02-06T07:01:58.504Z,1585.00
2023-02-06T07:02:58.500Z,1591.00
2023-02-06T07:03:58.489Z,1612.00
2023-02-06T07:04:58.469Z,1632.00
2023-02-06T07:05:58.461Z,1646.00
2023-02-06T07:06:58.460Z,1676.00
2023-02-06T07:07:59.411Z,1726.00
2023-02-06T07:08:58.432Z,1737.00
2023-02-06T07:09:58.415Z,1756.00
2023-02-06T07:10:58.410Z,1765.00
2023-02-06T07:11:58.415Z,1826.00
2023-02-06T07:12:58.414Z,1837.00
2023-02-06T07:13:58.395Z,1919.00
2023-02-06T07:14:58.424Z,1962.00
2023-02-06T07:15:58.499Z,1162.00
2023-02-06T07:16:58.418Z,1009.00
2023-02-06T07:17:58.472Z,870.00
2023-02-06T07:18:58.504Z,842.00
2023-02-06T07:19:58.506Z,887.00
2023-02-06T07:20:58.521Z,1085.00
2023-02-06T07:21:58.526Z,1360.00
2023-02-06T07:22:58.583Z,1476.00
2023-02-06T07:23:58.627Z,1489.00
2023-02-06T07:24:58.704Z,1522.00
2023-02-06T07:25:58.741Z,1572.00
2023-02-06T07:26:58.792Z,1399.00
2023-02-06T07:27:59.437Z,1157.00
2023-02-06T07:28:58.879Z,1067.00
2023-02-06T07:29:58.886Z,1038.00
2023-02-06T07:30:58.916Z,1044.00
2023-02-06T07:31:58.956Z,1043.00
2023-02-06T07:32:58.965Z,1040.00
2023-02-06T07:33:59.001Z,1036.00
2023-02-06T07:34:59.033Z,1049.00
2023-02-06T07:35:59.028Z,1164.00
2023-02-06T07:36:59.920Z,1242.00
2023-02-06T07:37:59.071Z,1235.00
2023-02-06T07:38:59.077Z,1257.00
2023-02-06T07:39:59.115Z,1318.00
2023-02-06T07:40:59.154Z,1353.00
2023-02-06T07:41:59.224Z,1398.00
2023-02-06T07:42:59.269Z,1407.00
2023-02-06T07:43:59.321Z,1442.00
2023-02-06T07:44:59.996Z,1458.00
2023-02-06T07:45:59.491Z,1477.00
2023-02-06T07:46:59.456Z,1507.00
2023-02-06T07:47:59.478Z,1531.00
2023-02-06T07:48:59.494Z,1538.00
2023-02-06T07:49:59.529Z,1552.00
2023-02-06T07:50:59.545Z,1561.00
2023-02-06T07:51:59.565Z,1575.00
2023-02-06T07:52:59.562Z,1616.00
2023-02-06T07:53:59.572Z,1653.00
2023-02-06T07:54:59.585Z,1678.00
2023-02-06T07:55:59.581Z,1709.00
2023-02-06T07:56:59.584Z,1718.00
2023-02-06T07:57:59.570Z,1727.00
2023-02-06T07:58:59.552Z,1750.00
2023-02-06T07:59:59.549Z,1812.00
2023-02-06T08:00:59.583Z,1833.00
2023-02-06T08:01:59.535Z,1865.00
2023-02-06T08:03:59.513Z,1881.00
2023-02-06T08:04:59.480Z,1898.00
2023-02-06T08:05:59.589Z,1926.00
2023-02-06T08:06:59.445Z,1943.00
2023-02-06T08:07:59.432Z,1968.00
2023-02-06T08:08:59.406Z,1983.00
2023-02-06T08:10:59.400Z,2068.00
2023-02-06T08:11:59.394Z,2077.00
2023-02-06T08:12:59.358Z,2088.00
2023-02-06T08:13:59.933Z,2102.00
2023-02-06T08:14:59.396Z,2146.00
2023-02-06T08:15:59.424Z,2153.00
2023-02-06T08:16:59.458Z,2160.00
2023-02-06T08:17:59.490Z,2136.00
2023-02-06T08:18:59.496Z,2222.00
2023-02-06T08:19:59.526Z,2226.00
2023-02-06T08:20:59.541Z,2159.00
2023-02-06T08:21:59.539Z,2137.00
2023-02-06T08:22:59.522Z,2133.00
2023-02-06T08:24:59.563Z,2113.00
2023-02-06T08:26:59.500Z,2106.00
2023-02-06T08:27:59.507Z,2103.00
2023-02-06T08:28:59.485Z,2099.00
2023-02-06T08:29:59.578Z,2090.00
2023-02-06T08:30:59.679Z,2080.00
2023-02-06T08:31:59.580Z,2069.00
2023-02-06T08:32:59.530Z,2064.00
2023-02-06T08:33:59.554Z,2059.00
2023-02-06T09:06:59.438Z,1927.00
2023-02-06T09:16:59.864Z,1867.00
2023-02-06T09:17:59.909Z,1776.00
2023-02-06T09:18:59.944Z,1762.00
2023-02-06T09:20:00.004Z,1702.00
2023-02-06T14:43:03.568Z,2878.00
2023-02-06T14:44:03.588Z,2876.00
2023-02-06T14:45:03.616Z,2870.00
2023-02-06T14:46:08.017Z,2860.00
2023-02-06T14:47:03.620Z,2857.00
2023-02-06T14:48:03.600Z,2852.00
2023-02-06T14:49:03.579Z,2849.00
2023-02-06T14:50:03.584Z,2847.00
2023-02-06T14:51:03.537Z,2844.00
2023-02-06T14:52:03.517Z,2843.00
2023-02-06T14:53:03.508Z,2843.00
2023-02-06T14:54:03.468Z,2837.00
2023-02-06T17:00:08.100Z,1684.00
2023-02-06T17:01:08.135Z,1678.00
2023-02-06T17:02:08.164Z,1675.00
2023-02-06T17:03:08.176Z,1675.00
2023-02-06T17:04:08.194Z,1677.00
2023-02-06T17:05:08.239Z,1676.00
2023-02-06T17:06:08.267Z,1674.00
2023-02-06T17:07:08.286Z,1669.00
2023-02-06T17:08:08.312Z,1667.00
2023-02-06T17:09:08.341Z,1665.00
2023-02-06T17:10:08.365Z,1660.00
2023-02-06T17:11:08.405Z,1655.00
2023-02-06T17:12:08.451Z,1654.00
2023-02-06T17:13:08.471Z,1653.00
2023-02-06T17:14:08.488Z,1654.00
2023-02-06T17:15:08.506Z,1654.00
2023-02-06T17:16:08.563Z,1652.00
2023-02-06T17:17:08.580Z,1649.00
2023-02-06T17:18:08.622Z,1646.00
2023-02-06T17:19:08.665Z,1646.00
2023-02-06T17:20:08.671Z,1647.00
2023-02-06T17:21:08.718Z,1648.00
2023-02-06T17:22:08.740Z,1643.00
2023-02-06T17:23:08.769Z,1640.00
2023-02-06T17:24:08.803Z,1643.00
2023-02-06T17:25:08.837Z,1646.00
2023-02-06T17:26:08.861Z,1643.00
2023-02-06T17:27:08.894Z,1639.00
2023-02-06T18:44:11.801Z,1488.00
2023-02-06T18:46:11.936Z,1481.00
2023-02-06T18:50:12.103Z,1484.00
2023-02-06T18:51:12.138Z,1480.00
2023-02-06T18:52:12.179Z,1480.00
2023-02-06T18:53:12.209Z,1478.00
2023-02-06T18:54:12.256Z,1479.00
2023-02-06T18:55:12.288Z,1477.00
2023-02-06T18:56:12.318Z,1474.00
2023-02-06T18:57:12.339Z,1471.00
2023-02-06T18:58:12.373Z,1468.00
2023-02-06T18:59:12.414Z,1462.00
2023-02-06T19:00:12.469Z,1457.00
2023-02-06T19:01:12.536Z,1454.00
2023-02-06T19:02:12.626Z,1456.00
2023-02-06T19:03:12.597Z,1458.00
2023-02-06T19:04:12.650Z,1460.00
2023-02-06T19:05:12.715Z,1463.00
2023-02-06T19:06:12.730Z,1460.00
2023-02-06T19:07:12.792Z,1458.00
2023-02-06T19:08:12.827Z,1455.00
2023-02-06T19:10:12.932Z,1445.00
2023-02-06T19:11:12.947Z,1444.00
2023-02-06T19:12:12.986Z,1442.00
2023-02-06T19:13:13.023Z,1442.00
2023-02-06T19:14:13.046Z,1443.00
2023-02-06T19:15:13.113Z,1440.00
2023-02-06T19:16:13.176Z,1441.00
2023-02-06T19:17:13.193Z,1441.00
2023-02-06T19:18:13.239Z,1439.00
2023-02-06T19:19:13.305Z,1438.00
2023-02-06T19:20:13.331Z,1436.00
2023-02-06T19:21:13.361Z,1436.00
2023-02-06T19:22:13.398Z,1437.00
2023-02-06T19:23:13.437Z,1435.00
2023-02-06T19:24:13.498Z,1428.00
2023-02-06T19:25:14.743Z,1431.00
2023-02-06T19:26:13.586Z,1427.00
2023-02-06T19:27:13.624Z,1430.00
2023-02-06T19:28:13.747Z,1427.00
2023-02-06T19:29:13.706Z,1425.00
2023-02-06T19:30:13.760Z,1425.00
2023-02-06T19:31:13.856Z,1426.00
2023-02-06T19:32:13.840Z,1424.00
2023-02-06T19:33:13.856Z,1422.00
2023-02-06T19:34:13.845Z,1420.00
2023-02-06T19:35:13.890Z,1417.00
2023-02-06T19:36:13.923Z,1411.00
2023-02-06T19:37:13.997Z,1407.00
2023-02-06T19:38:14.008Z,1403.00
2023-02-06T19:39:14.058Z,1405.00
2023-02-06T19:40:14.040Z,1399.00
2023-02-06T19:41:14.055Z,1395.00
2023-02-06T19:42:14.058Z,1394.00
2023-02-06T19:43:14.080Z,1393.00
2023-02-06T19:44:14.072Z,1392.00
2023-02-06T19:45:14.110Z,1386.00
2023-02-06T19:46:14.150Z,1385.00
2023-02-06T19:47:14.166Z,1385.00
2023-02-06T19:48:14.181Z,1383.00
2023-02-06T19:49:14.184Z,1385.00
2023-02-06T19:50:14.542Z,1384.00
2023-02-06T19:51:14.210Z,1380.00
2023-02-06T19:52:14.233Z,1381.00
2023-02-06T19:53:16.891Z,1384.00
2023-02-06T19:54:14.185Z,1380.00
2023-02-06T19:55:14.202Z,1379.00
2023-02-06T19:56:14.176Z,1378.00
2023-02-06T19:57:14.160Z,1376.00
2023-02-06T19:58:14.162Z,1376.00
2023-02-06T19:59:14.154Z,1376.00
2023-02-06T20:00:14.152Z,1373.00
2023-02-06T20:01:14.181Z,1372.00
2023-02-06T20:02:14.139Z,1370.00
2023-02-06T20:03:14.159Z,1370.00
2023-02-06T20:04:14.134Z,1369.00
2023-02-06T20:05:14.133Z,1365.00
2023-02-06T20:06:14.116Z,1364.00
2023-02-06T20:07:14.113Z,1362.00
2023-02-06T20:08:14.103Z,1360.00
2023-02-06T20:09:14.090Z,1355.00
2023-02-06T20:10:14.073Z,1357.00
2023-02-06T20:11:14.100Z,1355.00
2023-02-06T20:12:14.061Z,1357.00
2023-02-06T20:13:14.067Z,1359.00
2023-02-06T20:14:14.044Z,1355.00
2023-02-06T20:15:14.033Z,1351.00
2023-02-06T20:16:14.045Z,1353.00
2023-02-06T20:17:14.036Z,1353.00
2023-02-06T20:18:14.024Z,1352.00
2023-02-06T20:19:14.023Z,1350.00
2023-02-06T20:20:14.019Z,1347.00
2023-02-06T20:21:14.013Z,1347.00
2023-02-06T20:22:14.007Z,1345.00
2023-02-06T20:23:14.011Z,1346.00
2023-02-06T20:24:14.003Z,1346.00
2023-02-06T20:25:14.005Z,1347.00
2023-02-06T20:26:13.991Z,1342.00
2023-02-06T20:27:13.978Z,1339.00
2023-02-06T20:28:13.987Z,1334.00
2023-02-06T20:29:13.965Z,1336.00
2023-02-06T20:30:13.973Z,1332.00
2023-02-06T20:31:14.083Z,1332.00
2023-02-06T20:32:13.949Z,1329.00
2023-02-06T20:33:13.961Z,1330.00
2023-02-06T20:34:13.937Z,1332.00
2023-02-06T20:35:13.953Z,1332.00
2023-02-06T20:36:13.953Z,1331.00
2023-02-06T20:37:13.935Z,1329.00
2023-02-06T20:38:13.937Z,1325.00
2023-02-06T20:39:13.935Z,1325.00
2023-02-06T20:40:13.928Z,1323.00
2023-02-06T20:41:13.912Z,1323.00
2023-02-06T20:42:13.929Z,1324.00
2023-02-06T20:43:13.913Z,1327.00
2023-02-06T20:44:13.913Z,1324.00
2023-02-06T20:45:13.897Z,1323.00
2023-02-06T20:46:13.945Z,1324.00
2023-02-06T20:47:13.886Z,1326.00
2023-02-06T20:48:13.881Z,1323.00
2023-02-06T20:49:13.863Z,1323.00
2023-02-06T20:50:13.862Z,1321.00
2023-02-06T20:51:13.876Z,1317.00
2023-02-06T20:52:13.858Z,1314.00
2023-02-06T20:53:13.844Z,1312.00
2023-02-06T20:54:13.873Z,1311.00
2023-02-06T20:55:13.848Z,1307.00
2023-02-06T20:56:13.829Z,1305.00
2023-02-06T20:57:13.823Z,1305.00
2023-02-06T20:58:13.802Z,1304.00
2023-02-06T20:59:13.804Z,1302.00
2023-02-06T21:00:13.812Z,1299.00
2023-02-06T21:01:13.855Z,1296.00
2023-02-06T21:02:13.800Z,1295.00
2023-02-06T21:03:13.777Z,1295.00
2023-02-06T21:04:13.768Z,1291.00
2023-02-06T21:05:13.755Z,1290.00
2023-02-06T21:06:13.743Z,1290.00
2023-02-06T21:07:13.742Z,1285.00
2023-02-06T21:08:13.717Z,1280.00
2023-02-06T21:09:13.703Z,1280.00
2023-02-06T21:10:13.695Z,1278.00
2023-02-06T21:11:13.672Z,1277.00
2023-02-06T21:12:13.674Z,1277.00
2023-02-06T21:13:13.669Z,1274.00
2023-02-06T21:14:13.644Z,1272.00
2023-02-06T21:15:13.645Z,1270.00
2023-02-06T21:16:13.766Z,1273.00
2023-02-06T21:17:13.611Z,1270.00
2023-02-06T21:18:13.581Z,1268.00
2023-02-06T21:19:13.592Z,1268.00
2023-02-06T21:20:13.576Z,1265.00
2023-02-06T21:21:13.556Z,1264.00
2023-02-06T21:22:13.547Z,1266.00
2023-02-06T21:23:13.531Z,1265.00
2023-02-06T21:24:13.527Z,1264.00
2023-02-06T21:25:13.520Z,1263.00
2023-02-06T21:26:13.509Z,1262.00
2023-02-06T21:27:13.502Z,1261.00
2023-02-06T21:28:13.511Z,1263.00
2023-02-06T21:29:13.480Z,1262.00
2023-02-06T21:30:13.472Z,1261.00
2023-02-06T21:31:13.507Z,1260.00
2023-02-06T21:32:14.545Z,1257.00
2023-02-06T21:33:13.439Z,1255.00
2023-02-06T21:34:13.447Z,1250.00
2023-02-06T21:35:13.417Z,1251.00
2023-02-06T21:36:13.414Z,1248.00
2023-02-06T21:37:13.421Z,1249.00
2023-02-06T21:38:13.395Z,1246.00
2023-02-06T21:39:13.385Z,1244.00
2023-02-06T21:40:13.366Z,1245.00
2023-02-06T21:41:13.359Z,1240.00
2023-02-06T21:42:14.266Z,1237.00
2023-02-06T21:43:13.353Z,1238.00
2023-02-06T21:44:13.344Z,1237.00
2023-02-06T21:45:13.332Z,1235.00
2023-02-06T21:46:13.404Z,1232.00
2023-02-06T21:47:13.308Z,1233.00
2023-02-06T21:48:13.306Z,1230.00
2023-02-06T21:49:13.291Z,1229.00
2023-02-06T21:50:13.281Z,1229.00
2023-02-06T21:51:13.292Z,1226.00
2023-02-06T21:52:13.278Z,1225.00
2023-02-06T21:53:13.271Z,1224.00
2023-02-06T21:54:13.266Z,1222.00
2023-02-06T21:55:13.257Z,1222.00
2023-02-06T21:56:13.244Z,1223.00
2023-02-06T21:57:13.256Z,1217.00
2023-02-06T23:08:12.551Z,1146.00
2023-02-06T23:09:12.536Z,1145.00
2023-02-06T23:10:12.532Z,1144.00
2023-02-06T23:11:12.527Z,1146.00
2023-02-06T23:12:12.525Z,1145.00
2023-02-06T23:13:12.511Z,1144.00
2023-02-06T23:14:12.516Z,1147.00
2023-02-06T23:15:12.505Z,1146.00
2023-02-06T23:16:12.533Z,1147.00
2023-02-06T23:17:12.477Z,1147.00
2023-02-06T23:18:12.477Z,1146.00
2023-02-06T23:19:12.476Z,1144.00
2023-02-06T23:20:12.472Z,1144.00
2023-02-06T23:21:12.477Z,1143.00
2023-02-06T23:22:12.457Z,1141.00
2023-02-06T23:23:12.462Z,1140.00
2023-02-06T23:24:12.482Z,1141.00
2023-02-06T23:25:12.451Z,1137.00
2023-02-06T23:26:12.448Z,1135.00
2023-02-06T23:27:12.443Z,1132.00
2023-02-06T23:28:12.543Z,1129.00
2023-02-06T23:29:12.451Z,1128.00
2023-02-06T23:30:12.463Z,1127.00
2023-02-06T23:31:12.456Z,1126.00
2023-02-06T23:32:12.440Z,1127.00
2023-02-06T23:33:12.433Z,1126.00
2023-02-06T23:34:12.436Z,1129.00
2023-02-06T23:35:12.415Z,1129.00
2023-02-06T23:36:12.419Z,1126.00
2023-02-06T23:37:12.415Z,1128.00
2023-02-06T23:38:12.386Z,1126.00
2023-02-06T23:39:12.382Z,1124.00
2023-02-06T23:40:12.375Z,1124.00
2023-02-06T23:41:12.360Z,1123.00
2023-02-06T23:42:12.346Z,1121.00
2023-02-06T23:43:12.354Z,1116.00
2023-02-06T23:44:12.337Z,1117.00
2023-02-06T23:45:12.328Z,1115.00
2023-02-06T23:47:12.290Z,1113.00
2023-02-06T23:48:12.299Z,1113.00
2023-02-06T23:49:12.284Z,1111.00
